Carpenter, Mississippi
Current Conditions -  °F | °C
As of 2:35 PM on Monday 26 Jan 2015 (Local Time) from KVKS Reporting Station
Clear Clear  
Wind Chill: 54°   Ceiling: Unl
Heat Index: 54°   Visibility: 10mi
Dew Point: 37°   Wind: 5mph
Humidity: 54%   Direction: NA
Pressure: 30.09"   Gusts: NA
Location:  31.955°N, 90.8237°W
Report Text: KVKS 262035Z AUTO VRB04KT 10SM CLR 12/03 A3009 RMK A01
Loading
Personal Weather Stations






























Interactive Weather Map New forecast layout! Learn more

10-Day Weather Forecast

Advertisements
Track Severe Weather on mobile